sensor_id;sensor_type;location;lat;lon;timestamp;temperature;humidity
8707;DHT22;4390;49.302;9.306;2023-03-01T00:00:00;0.70;83.90
8707;DHT22;4390;49.302;9.306;2023-03-01T00:02:27;0.60;83.90
8707;DHT22;4390;49.302;9.306;2023-03-01T00:04:54;0.60;84.20
8707;DHT22;4390;49.302;9.306;2023-03-01T00:07:20;0.50;84.30
8707;DHT22;4390;49.302;9.306;2023-03-01T00:09:47;0.50;84.40
8707;DHT22;4390;49.302;9.306;2023-03-01T00:12:14;0.70;84.10
8707;DHT22;4390;49.302;9.306;2023-03-01T00:14:41;0.70;83.60
8707;DHT22;4390;49.302;9.306;2023-03-01T00:17:08;0.70;83.80
8707;DHT22;4390;49.302;9.306;2023-03-01T00:19:35;0.80;83.60
8707;DHT22;4390;49.302;9.306;2023-03-01T00:22:01;0.70;83.50
8707;DHT22;4390;49.302;9.306;2023-03-01T00:24:28;0.60;83.90
8707;DHT22;4390;49.302;9.306;2023-03-01T00:26:55;0.80;83.70
8707;DHT22;4390;49.302;9.306;2023-03-01T00:29:24;0.80;83.50
8707;DHT22;4390;49.302;9.306;2023-03-01T00:31:51;0.60;83.80
8707;DHT22;4390;49.302;9.306;2023-03-01T00:34:18;0.50;84.00
8707;DHT22;4390;49.302;9.306;2023-03-01T00:36:44;0.50;84.10
8707;DHT22;4390;49.302;9.306;2023-03-01T00:39:13;0.50;84.20
8707;DHT22;4390;49.302;9.306;2023-03-01T00:41:41;0.70;84.10
8707;DHT22;4390;49.302;9.306;2023-03-01T00:44:08;0.50;84.10
8707;DHT22;4390;49.302;9.306;2023-03-01T00:46:36;0.60;84.20
8707;DHT22;4390;49.302;9.306;2023-03-01T00:49:03;0.70;83.80
8707;DHT22;4390;49.302;9.306;2023-03-01T00:51:31;0.70;83.80
8707;DHT22;4390;49.302;9.306;2023-03-01T00:54:00;0.60;83.90
8707;DHT22;4390;49.302;9.306;2023-03-01T00:56:27;0.50;84.00
8707;DHT22;4390;49.302;9.306;2023-03-01T00:58:55;0.50;84.00
8707;DHT22;4390;49.302;9.306;2023-03-01T01:01:26;0.40;84.30
8707;DHT22;4390;49.302;9.306;2023-03-01T01:03:58;0.50;84.30
8707;DHT22;4390;49.302;9.306;2023-03-01T01:06:31;0.50;84.20
8707;DHT22;4390;49.302;9.306;2023-03-01T01:08:59;0.60;84.10
8707;DHT22;4390;49.302;9.306;2023-03-01T01:11:27;0.50;84.20
8707;DHT22;4390;49.302;9.306;2023-03-01T01:13:55;0.50;84.20
8707;DHT22;4390;49.302;9.306;2023-03-01T01:16:24;0.40;84.30
8707;DHT22;4390;49.302;9.306;2023-03-01T01:18:52;0.30;84.50
8707;DHT22;4390;49.302;9.306;2023-03-01T01:21:21;0.30;84.90
8707;DHT22;4390;49.302;9.306;2023-03-01T01:23:51;0.30;84.60
8707;DHT22;4390;49.302;9.306;2023-03-01T01:26:21;0.40;84.70
8707;DHT22;4390;49.302;9.306;2023-03-01T01:28:49;0.30;84.50
8707;DHT22;4390;49.302;9.306;2023-03-01T01:31:16;0.50;84.50
8707;DHT22;4390;49.302;9.306;2023-03-01T01:33:44;0.40;84.40
8707;DHT22;4390;49.302;9.306;2023-03-01T01:36:11;0.30;84.40
8707;DHT22;4390;49.302;9.306;2023-03-01T01:38:39;0.20;84.70
8707;DHT22;4390;49.302;9.306;2023-03-01T01:41:07;0.30;84.70
8707;DHT22;4390;49.302;9.306;2023-03-01T01:43:36;0.30;84.80
8707;DHT22;4390;49.302;9.306;2023-03-01T01:46:15;0.30;84.50
8707;DHT22;4390;49.302;9.306;2023-03-01T01:48:46;0.20;84.60
8707;DHT22;4390;49.302;9.306;2023-03-01T01:51:22;0.10;84.90
8707;DHT22;4390;49.302;9.306;2023-03-01T01:53:53;0.00;85.00
8707;DHT22;4390;49.302;9.306;2023-03-01T01:56:23;0.20;85.00
8707;DHT22;4390;49.302;9.306;2023-03-01T01:58:50;0.50;84.30
8707;DHT22;4390;49.302;9.306;2023-03-01T02:01:17;0.40;84.00
8707;DHT22;4390;49.302;9.306;2023-03-01T02:03:45;0.60;84.10
8707;DHT22;4390;49.302;9.306;2023-03-01T02:08:49;0.40;83.90
8707;DHT22;4390;49.302;9.306;2023-03-01T02:11:17;0.30;84.10
8707;DHT22;4390;49.302;9.306;2023-03-01T02:13:48;0.50;84.00
8707;DHT22;4390;49.302;9.306;2023-03-01T02:23:15;0.00;84.80
8707;DHT22;4390;49.302;9.306;2023-03-01T02:25:56;-0.10;85.10
8707;DHT22;4390;49.302;9.306;2023-03-01T02:28:31;0.10;84.90
8707;DHT22;4390;49.302;9.306;2023-03-01T02:30:58;0.00;84.60
8707;DHT22;4390;49.302;9.306;2023-03-01T02:33:44;0.00;84.80
8707;DHT22;4390;49.302;9.306;2023-03-01T02:36:15;0.00;84.90
8707;DHT22;4390;49.302;9.306;2023-03-01T02:38:44;0.20;84.80
8707;DHT22;4390;49.302;9.306;2023-03-01T02:41:14;0.10;84.80
8707;DHT22;4390;49.302;9.306;2023-03-01T02:43:42;0.10;84.70
8707;DHT22;4390;49.302;9.306;2023-03-01T02:46:15;0.20;84.60
8707;DHT22;4390;49.302;9.306;2023-03-01T02:48:48;-0.10;84.80
8707;DHT22;4390;49.302;9.306;2023-03-01T02:54:21;-0.20;85.30
8707;DHT22;4390;49.302;9.306;2023-03-01T02:56:51;-0.10;85.20
8707;DHT22;4390;49.302;9.306;2023-03-01T02:59:22;0.00;85.00
8707;DHT22;4390;49.302;9.306;2023-03-01T03:01:50;0.00;85.00
8707;DHT22;4390;49.302;9.306;2023-03-01T03:04:18;0.00;84.90
8707;DHT22;4390;49.302;9.306;2023-03-01T03:06:50;-0.10;85.00
8707;DHT22;4390;49.302;9.306;2023-03-01T03:09:17;-0.10;85.10
8707;DHT22;4390;49.302;9.306;2023-03-01T03:11:44;0.00;84.90
8707;DHT22;4390;49.302;9.306;2023-03-01T03:14:13;0.00;84.80
8707;DHT22;4390;49.302;9.306;2023-03-01T03:16:48;-0.30;85.20
8707;DHT22;4390;49.302;9.306;2023-03-01T03:19:17;-0.20;85.50
8707;DHT22;4390;49.302;9.306;2023-03-01T03:21:44;-0.30;85.50
8707;DHT22;4390;49.302;9.306;2023-03-01T03:24:11;-0.30;85.40
8707;DHT22;4390;49.302;9.306;2023-03-01T03:26:37;-0.20;85.20
8707;DHT22;4390;49.302;9.306;2023-03-01T03:29:04;-0.30;85.40
8707;DHT22;4390;49.302;9.306;2023-03-01T03:31:31;-0.30;85.50
8707;DHT22;4390;49.302;9.306;2023-03-01T03:33:58;-0.40;85.50
8707;DHT22;4390;49.302;9.306;2023-03-01T03:36:25;-0.30;85.60
8707;DHT22;4390;49.302;9.306;2023-03-01T03:38:52;-0.10;85.40
8707;DHT22;4390;49.302;9.306;2023-03-01T03:41:19;-0.20;85.50
8707;DHT22;4390;49.302;9.306;2023-03-01T03:43:45;-0.20;85.60
8707;DHT22;4390;49.302;9.306;2023-03-01T03:46:12;-0.20;85.60
8707;DHT22;4390;49.302;9.306;2023-03-01T03:48:44;-0.10;85.40
8707;DHT22;4390;49.302;9.306;2023-03-01T03:51:13;0.00;85.20
8707;DHT22;4390;49.302;9.306;2023-03-01T03:53:41;-0.10;85.10
8707;DHT22;4390;49.302;9.306;2023-03-01T03:56:09;-0.30;85.20
8707;DHT22;4390;49.302;9.306;2023-03-01T03:58:36;-0.40;85.50
8707;DHT22;4390;49.302;9.306;2023-03-01T04:01:04;-0.50;85.60
8707;DHT22;4390;49.302;9.306;2023-03-01T04:03:31;-0.50;85.80
8707;DHT22;4390;49.302;9.306;2023-03-01T04:05:59;-0.40;86.00
8707;DHT22;4390;49.302;9.306;2023-03-01T04:08:27;-0.50;85.90
8707;DHT22;4390;49.302;9.306;2023-03-01T04:11:00;-0.50;86.00
8707;DHT22;4390;49.302;9.306;2023-03-01T04:13:47;-0.70;86.20
8707;DHT22;4390;49.302;9.306;2023-03-01T04:16:14;-0.60;86.00
8707;DHT22;4390;49.302;9.306;2023-03-01T04:18:41;-0.80;86.20
8707;DHT22;4390;49.302;9.306;2023-03-01T04:21:08;-0.80;86.40
8707;DHT22;4390;49.302;9.306;2023-03-01T04:23:34;-0.80;86.40
8707;DHT22;4390;49.302;9.306;2023-03-01T04:26:01;-0.90;86.60
8707;DHT22;4390;49.302;9.306;2023-03-01T04:28:40;-0.90;86.60
8707;DHT22;4390;49.302;9.306;2023-03-01T04:31:12;-0.90;86.60
8707;DHT22;4390;49.302;9.306;2023-03-01T04:33:48;-0.80;86.50
8707;DHT22;4390;49.302;9.306;2023-03-01T04:36:16;-0.70;86.40
8707;DHT22;4390;49.302;9.306;2023-03-01T04:38:45;-0.60;86.30
8707;DHT22;4390;49.302;9.306;2023-03-01T04:41:17;-0.70;86.00
8707;DHT22;4390;49.302;9.306;2023-03-01T04:43:44;-0.70;86.00
8707;DHT22;4390;49.302;9.306;2023-03-01T04:46:12;-0.60;85.90
8707;DHT22;4390;49.302;9.306;2023-03-01T04:48:44;-0.80;86.00
8707;DHT22;4390;49.302;9.306;2023-03-01T04:51:11;-0.80;86.20
8707;DHT22;4390;49.302;9.306;2023-03-01T04:53:40;-0.80;86.10
8707;DHT22;4390;49.302;9.306;2023-03-01T04:56:08;-0.80;86.10
8707;DHT22;4390;49.302;9.306;2023-03-01T04:58:42;-1.00;86.20
8707;DHT22;4390;49.302;9.306;2023-03-01T05:01:15;-1.10;86.50
8707;DHT22;4390;49.302;9.306;2023-03-01T05:03:43;-0.90;86.60
8707;DHT22;4390;49.302;9.306;2023-03-01T05:06:11;-0.70;86.20
8707;DHT22;4390;49.302;9.306;2023-03-01T05:08:39;-0.70;86.00
8707;DHT22;4390;49.302;9.306;2023-03-01T05:11:06;-0.60;85.90
8707;DHT22;4390;49.302;9.306;2023-03-01T05:13:36;-0.80;85.90
8707;DHT22;4390;49.302;9.306;2023-03-01T05:16:04;-0.80;86.10
8707;DHT22;4390;49.302;9.306;2023-03-01T05:18:33;-0.80;86.10
8707;DHT22;4390;49.302;9.306;2023-03-01T05:23:32;-0.70;86.00
8707;DHT22;4390;49.302;9.306;2023-03-01T05:26:00;-0.50;85.60
8707;DHT22;4390;49.302;9.306;2023-03-01T05:28:27;-0.60;85.40
8707;DHT22;4390;49.302;9.306;2023-03-01T05:30:57;-0.80;86.10
8707;DHT22;4390;49.302;9.306;2023-03-01T05:33:25;-0.80;86.10
8707;DHT22;4390;49.302;9.306;2023-03-01T05:35:52;-0.90;86.20
8707;DHT22;4390;49.302;9.306;2023-03-01T05:38:20;-1.00;86.20
8707;DHT22;4390;49.302;9.306;2023-03-01T05:40:48;-1.00;86.50
8707;DHT22;4390;49.302;9.306;2023-03-01T05:43:16;-0.70;86.30
8707;DHT22;4390;49.302;9.306;2023-03-01T05:45:43;-0.70;86.00
8707;DHT22;4390;49.302;9.306;2023-03-01T05:48:10;-0.80;86.10
8707;DHT22;4390;49.302;9.306;2023-03-01T05:50:43;-0.70;86.20
8707;DHT22;4390;49.302;9.306;2023-03-01T05:53:16;-0.70;86.10
8707;DHT22;4390;49.302;9.306;2023-03-01T05:55:43;-0.60;86.00
8707;DHT22;4390;49.302;9.306;2023-03-01T05:58:16;-0.70;85.90
8707;DHT22;4390;49.302;9.306;2023-03-01T06:00:44;-0.60;85.90
8707;DHT22;4390;49.302;9.306;2023-03-01T06:03:13;-0.80;86.00
8707;DHT22;4390;49.302;9.306;2023-03-01T06:05:40;-0.80;86.10
8707;DHT22;4390;49.302;9.306;2023-03-01T06:08:09;-0.70;86.30
8707;DHT22;4390;49.302;9.306;2023-03-01T06:10:36;-0.70;86.10
8707;DHT22;4390;49.302;9.306;2023-03-01T06:13:03;-0.80;86.10
8707;DHT22;4390;49.302;9.306;2023-03-01T06:15:30;-0.90;86.20
8707;DHT22;4390;49.302;9.306;2023-03-01T06:17:57;-0.80;86.30
8707;DHT22;4390;49.302;9.306;2023-03-01T06:20:27;-0.80;86.10
8707;DHT22;4390;49.302;9.306;2023-03-01T06:22:55;-0.70;86.10
8707;DHT22;4390;49.302;9.306;2023-03-01T06:25:23;-0.80;86.10
8707;DHT22;4390;49.302;9.306;2023-03-01T06:27:50;-0.90;86.10
8707;DHT22;4390;49.302;9.306;2023-03-01T06:30:20;-0.90;86.10
8707;DHT22;4390;49.302;9.306;2023-03-01T06:32:47;-1.10;86.50
8707;DHT22;4390;49.302;9.306;2023-03-01T06:35:15;-1.10;86.80
8707;DHT22;4390;49.302;9.306;2023-03-01T06:37:47;-1.30;86.80
8707;DHT22;4390;49.302;9.306;2023-03-01T06:40:15;-1.10;86.90
8707;DHT22;4390;49.302;9.306;2023-03-01T06:42:46;-1.00;86.40
8707;DHT22;4390;49.302;9.306;2023-03-01T06:45:13;-1.00;86.60
8707;DHT22;4390;49.302;9.306;2023-03-01T06:47:40;-1.00;86.50
8707;DHT22;4390;49.302;9.306;2023-03-01T06:50:07;-0.90;86.40
8707;DHT22;4390;49.302;9.306;2023-03-01T06:52:34;-0.70;86.40
8707;DHT22;4390;49.302;9.306;2023-03-01T06:55:01;-0.80;86.10
8707;DHT22;4390;49.302;9.306;2023-03-01T06:57:28;-0.80;86.20
8707;DHT22;4390;49.302;9.306;2023-03-01T06:59:55;-0.70;86.10
8707;DHT22;4390;49.302;9.306;2023-03-01T07:02:22;-0.80;86.30
8707;DHT22;4390;49.302;9.306;2023-03-01T07:04:50;-0.70;86.20
8707;DHT22;4390;49.302;9.306;2023-03-01T07:07:18;-0.60;86.10
8707;DHT22;4390;49.302;9.306;2023-03-01T07:09:45;-0.60;85.90
8707;DHT22;4390;49.302;9.306;2023-03-01T07:12:12;-0.40;86.10
8707;DHT22;4390;49.302;9.306;2023-03-01T07:14:39;-0.30;85.50
8707;DHT22;4390;49.302;9.306;2023-03-01T07:17:06;-0.50;85.60
8707;DHT22;4390;49.302;9.306;2023-03-01T07:19:33;-0.60;86.20
8707;DHT22;4390;49.302;9.306;2023-03-01T07:21:59;-0.50;86.20
8707;DHT22;4390;49.302;9.306;2023-03-01T07:24:26;-0.10;85.70
8707;DHT22;4390;49.302;9.306;2023-03-01T07:26:53;0.00;85.40
8707;DHT22;4390;49.302;9.306;2023-03-01T07:29:20;0.20;85.00
8707;DHT22;4390;49.302;9.306;2023-03-01T07:31:47;0.30;84.50
8707;DHT22;4390;49.302;9.306;2023-03-01T07:34:14;0.20;84.30
8707;DHT22;4390;49.302;9.306;2023-03-01T07:36:41;0.10;84.50
8707;DHT22;4390;49.302;9.306;2023-03-01T07:39:10;0.00;84.50
8707;DHT22;4390;49.302;9.306;2023-03-01T07:41:37;-0.10;84.60
8707;DHT22;4390;49.302;9.306;2023-03-01T07:44:04;-0.30;84.70
8707;DHT22;4390;49.302;9.306;2023-03-01T07:46:32;-0.40;84.80
8707;DHT22;4390;49.302;9.306;2023-03-01T07:48:59;-0.70;85.50
8707;DHT22;4390;49.302;9.306;2023-03-01T07:51:25;-0.60;86.10
8707;DHT22;4390;49.302;9.306;2023-03-01T07:53:52;-0.50;85.90
8707;DHT22;4390;49.302;9.306;2023-03-01T07:56:19;-0.40;85.60
8707;DHT22;4390;49.302;9.306;2023-03-01T07:58:46;-0.70;85.80
8707;DHT22;4390;49.302;9.306;2023-03-01T08:01:18;-0.60;86.10
8707;DHT22;4390;49.302;9.306;2023-03-01T08:03:46;-0.60;86.00
8707;DHT22;4390;49.302;9.306;2023-03-01T08:06:15;-0.30;86.00
8707;DHT22;4390;49.302;9.306;2023-03-01T08:08:42;-0.20;85.50
8707;DHT22;4390;49.302;9.306;2023-03-01T08:11:11;-0.30;85.30
8707;DHT22;4390;49.302;9.306;2023-03-01T08:13:38;-0.50;85.60
8707;DHT22;4390;49.302;9.306;2023-03-01T08:16:07;-0.60;86.00
8707;DHT22;4390;49.302;9.306;2023-03-01T08:18:34;-0.70;86.20
8707;DHT22;4390;49.302;9.306;2023-03-01T08:21:09;-0.50;86.20
8707;DHT22;4390;49.302;9.306;2023-03-01T08:23:36;-0.30;86.20
8707;DHT22;4390;49.302;9.306;2023-03-01T08:26:11;0.00;85.70
8707;DHT22;4390;49.302;9.306;2023-03-01T08:28:39;0.10;85.30
8707;DHT22;4390;49.302;9.306;2023-03-01T08:31:20;0.30;85.10
8707;DHT22;4390;49.302;9.306;2023-03-01T08:33:50;0.30;84.60
8707;DHT22;4390;49.302;9.306;2023-03-01T08:36:29;0.20;84.70
8707;DHT22;4390;49.302;9.306;2023-03-01T08:38:57;0.30;84.50
8707;DHT22;4390;49.302;9.306;2023-03-01T08:41:24;0.30;84.40
8707;DHT22;4390;49.302;9.306;2023-03-01T08:43:51;0.40;84.40
8707;DHT22;4390;49.302;9.306;2023-03-01T08:46:19;0.40;84.20
8707;DHT22;4390;49.302;9.306;2023-03-01T08:48:45;0.40;84.50
8707;DHT22;4390;49.302;9.306;2023-03-01T08:51:17;0.60;84.40
8707;DHT22;4390;49.302;9.306;2023-03-01T08:53:47;0.70;84.00
8707;DHT22;4390;49.302;9.306;2023-03-01T08:56:14;0.80;83.60
8707;DHT22;4390;49.302;9.306;2023-03-01T08:58:47;1.00;83.50
8707;DHT22;4390;49.302;9.306;2023-03-01T09:01:16;1.00;83.20
8707;DHT22;4390;49.302;9.306;2023-03-01T09:03:43;1.00;83.20
8707;DHT22;4390;49.302;9.306;2023-03-01T09:06:11;1.10;83.00
8707;DHT22;4390;49.302;9.306;2023-03-01T09:08:40;1.20;82.70
8707;DHT22;4390;49.302;9.306;2023-03-01T09:11:09;1.10;82.80
8707;DHT22;4390;49.302;9.306;2023-03-01T09:13:36;1.50;82.60
8707;DHT22;4390;49.302;9.306;2023-03-01T09:16:05;1.50;82.20
8707;DHT22;4390;49.302;9.306;2023-03-01T09:18:33;1.70;82.00
8707;DHT22;4390;49.302;9.306;2023-03-01T09:21:05;1.60;82.00
8707;DHT22;4390;49.302;9.306;2023-03-01T09:23:35;1.70;81.90
8707;DHT22;4390;49.302;9.306;2023-03-01T09:26:03;1.70;81.60
8707;DHT22;4390;49.302;9.306;2023-03-01T09:28:30;1.80;81.40
8707;DHT22;4390;49.302;9.306;2023-03-01T09:31:00;2.00;81.20
8707;DHT22;4390;49.302;9.306;2023-03-01T09:33:29;2.00;81.30
8707;DHT22;4390;49.302;9.306;2023-03-01T09:35:57;2.10;81.30
8707;DHT22;4390;49.302;9.306;2023-03-01T09:38:24;2.10;81.00
8707;DHT22;4390;49.302;9.306;2023-03-01T09:40:52;2.20;81.10
8707;DHT22;4390;49.302;9.306;2023-03-01T09:43:44;2.20;80.90
8707;DHT22;4390;49.302;9.306;2023-03-01T09:46:14;2.30;80.80
8707;DHT22;4390;49.302;9.306;2023-03-01T09:48:48;2.40;80.60
8707;DHT22;4390;49.302;9.306;2023-03-01T09:51:24;2.70;81.00
8707;DHT22;4390;49.302;9.306;2023-03-01T09:53:52;2.90;80.00
8707;DHT22;4390;49.302;9.306;2023-03-01T09:56:32;2.50;79.80
8707;DHT22;4390;49.302;9.306;2023-03-01T09:59:18;2.60;80.50
8707;DHT22;4390;49.302;9.306;2023-03-01T10:01:59;2.80;80.30
8707;DHT22;4390;49.302;9.306;2023-03-01T10:10:08;3.30;79.90
8707;DHT22;4390;49.302;9.306;2023-03-01T10:12:39;3.30;79.60
8707;DHT22;4390;49.302;9.306;2023-03-01T10:15:14;3.30;79.30
8707;DHT22;4390;49.302;9.306;2023-03-01T10:17:51;3.60;79.40
8707;DHT22;4390;49.302;9.306;2023-03-01T10:20:20;4.30;78.70
8707;DHT22;4390;49.302;9.306;2023-03-01T10:22:48;5.50;77.50
8707;DHT22;4390;49.302;9.306;2023-03-01T10:28:31;8.10;73.20
8707;DHT22;4390;49.302;9.306;2023-03-01T10:31:01;9.20;71.20
8707;DHT22;4390;49.302;9.306;2023-03-01T10:33:32;10.20;69.70
8707;DHT22;4390;49.302;9.306;2023-03-01T10:35:59;11.10;68.10
8707;DHT22;4390;49.302;9.306;2023-03-01T10:38:26;12.20;67.00
8707;DHT22;4390;49.302;9.306;2023-03-01T10:41:05;12.80;65.90
8707;DHT22;4390;49.302;9.306;2023-03-01T10:43:44;13.70;64.80
8707;DHT22;4390;49.302;9.306;2023-03-01T10:49:21;15.40;62.60
8707;DHT22;4390;49.302;9.306;2023-03-01T10:51:50;16.40;61.00
8707;DHT22;4390;49.302;9.306;2023-03-01T10:54:30;16.00;60.60
8707;DHT22;4390;49.302;9.306;2023-03-01T10:57:00;16.70;60.30
8707;DHT22;4390;49.302;9.306;2023-03-01T11:02:20;17.10;59.50
8707;DHT22;4390;49.302;9.306;2023-03-01T11:07:29;18.10;58.30
8707;DHT22;4390;49.302;9.306;2023-03-01T11:09:56;18.40;57.80
8707;DHT22;4390;49.302;9.306;2023-03-01T11:12:23;18.40;57.30
8707;DHT22;4390;49.302;9.306;2023-03-01T11:14:53;18.20;57.30
8707;DHT22;4390;49.302;9.306;2023-03-01T11:17:27;18.30;57.40
8707;DHT22;4390;49.302;9.306;2023-03-01T11:23:05;18.00;57.50
8707;DHT22;4390;49.302;9.306;2023-03-01T11:25:51;18.60;57.50
8707;DHT22;4390;49.302;9.306;2023-03-01T11:28:20;19.40;56.60
8707;DHT22;4390;49.302;9.306;2023-03-01T11:30:58;19.80;56.20
8707;DHT22;4390;49.302;9.306;2023-03-01T11:33:51;18.70;56.10
8707;DHT22;4390;49.302;9.306;2023-03-01T11:36:34;18.30;57.30
8707;DHT22;4390;49.302;9.306;2023-03-01T11:39:39;18.90;56.50
8707;DHT22;4390;49.302;9.306;2023-03-01T11:42:15;19.20;56.50
8707;DHT22;4390;49.302;9.306;2023-03-01T11:44:48;20.40;55.20
8707;DHT22;4390;49.302;9.306;2023-03-01T11:47:48;20.50;54.80
8707;DHT22;4390;49.302;9.306;2023-03-01T11:55:45;20.70;54.70
8707;DHT22;4390;49.302;9.306;2023-03-01T12:04:27;19.90;54.40
8707;DHT22;4390;49.302;9.306;2023-03-01T12:10:15;18.50;55.60
8707;DHT22;4390;49.302;9.306;2023-03-01T12:13:23;19.30;55.50
8707;DHT22;4390;49.302;9.306;2023-03-01T12:16:01;19.70;54.80
8707;DHT22;4390;49.302;9.306;2023-03-01T12:21:39;20.20;53.90
8707;DHT22;4390;49.302;9.306;2023-03-01T12:27:43;20.20;54.20
8707;DHT22;4390;49.302;9.306;2023-03-01T12:30:28;20.00;54.20
8707;DHT22;4390;49.302;9.306;2023-03-01T12:46:33;18.90;55.20
8707;DHT22;4390;49.302;9.306;2023-03-01T12:49:21;19.40;55.10
8707;DHT22;4390;49.302;9.306;2023-03-01T12:51:56;19.20;54.70
8707;DHT22;4390;49.302;9.306;2023-03-01T12:54:33;18.80;54.70
8707;DHT22;4390;49.302;9.306;2023-03-01T12:57:32;18.10;55.20
8707;DHT22;4390;49.302;9.306;2023-03-01T13:06:21;16.30;57.30
8707;DHT22;4390;49.302;9.306;2023-03-01T13:09:07;16.40;57.30
8707;DHT22;4390;49.302;9.306;2023-03-01T13:11:35;16.60;57.30
8707;DHT22;4390;49.302;9.306;2023-03-01T13:16:48;17.60;56.60
8707;DHT22;4390;49.302;9.306;2023-03-01T13:19:27;18.30;56.70
8707;DHT22;4390;49.302;9.306;2023-03-01T13:21:59;18.20;55.60
8707;DHT22;4390;49.302;9.306;2023-03-01T13:29:59;16.80;57.00
8707;DHT22;4390;49.302;9.306;2023-03-01T13:32:35;16.80;57.00
8707;DHT22;4390;49.302;9.306;2023-03-01T13:37:46;16.70;57.70
8707;DHT22;4390;49.302;9.306;2023-03-01T13:42:49;16.40;57.10
8707;DHT22;4390;49.302;9.306;2023-03-01T13:45:41;16.20;57.80
8707;DHT22;4390;49.302;9.306;2023-03-01T13:48:18;16.40;57.60
8707;DHT22;4390;49.302;9.306;2023-03-01T13:50:53;16.50;57.60
8707;DHT22;4390;49.302;9.306;2023-03-01T13:53:23;16.60;57.40
8707;DHT22;4390;49.302;9.306;2023-03-01T13:55:55;16.20;57.50
8707;DHT22;4390;49.302;9.306;2023-03-01T13:58:28;16.20;58.20
8707;DHT22;4390;49.302;9.306;2023-03-01T14:01:00;15.90;57.80
8707;DHT22;4390;49.302;9.306;2023-03-01T14:03:30;16.10;58.00
8707;DHT22;4390;49.302;9.306;2023-03-01T14:06:19;16.10;58.20
8707;DHT22;4390;49.302;9.306;2023-03-01T14:08:49;16.50;57.80
8707;DHT22;4390;49.302;9.306;2023-03-01T14:14:31;16.20;57.40
8707;DHT22;4390;49.302;9.306;2023-03-01T14:20:02;14.80;58.80
8707;DHT22;4390;49.302;9.306;2023-03-01T14:22:33;14.80;59.20
8707;DHT22;4390;49.302;9.306;2023-03-01T14:30:40;14.60;59.40
8707;DHT22;4390;49.302;9.306;2023-03-01T14:33:20;14.60;59.40
8707;DHT22;4390;49.302;9.306;2023-03-01T14:36:03;15.00;59.50
8707;DHT22;4390;49.302;9.306;2023-03-01T14:38:45;15.40;59.30
8707;DHT22;4390;49.302;9.306;2023-03-01T14:41:21;15.10;59.40
8707;DHT22;4390;49.302;9.306;2023-03-01T14:44:00;14.90;59.50
8707;DHT22;4390;49.302;9.306;2023-03-01T14:46:37;14.50;60.00
8707;DHT22;4390;49.302;9.306;2023-03-01T14:49:12;13.90;60.30
8707;DHT22;4390;49.302;9.306;2023-03-01T14:51:43;13.20;61.30
8707;DHT22;4390;49.302;9.306;2023-03-01T14:54:47;12.60;61.70
8707;DHT22;4390;49.302;9.306;2023-03-01T14:57:35;12.10;62.20
8707;DHT22;4390;49.302;9.306;2023-03-01T15:00:05;11.50;63.50
8707;DHT22;4390;49.302;9.306;2023-03-01T15:02:34;11.40;63.60
8707;DHT22;4390;49.302;9.306;2023-03-01T15:05:03;11.30;64.10
8707;DHT22;4390;49.302;9.306;2023-03-01T15:07:39;11.30;64.50
8707;DHT22;4390;49.302;9.306;2023-03-01T15:10:17;11.30;64.20
8707;DHT22;4390;49.302;9.306;2023-03-01T15:12:46;11.00;64.60
8707;DHT22;4390;49.302;9.306;2023-03-01T15:15:31;11.10;64.70
8707;DHT22;4390;49.302;9.306;2023-03-01T15:18:03;11.00;64.80
8707;DHT22;4390;49.302;9.306;2023-03-01T15:20:31;11.00;64.80
8707;DHT22;4390;49.302;9.306;2023-03-01T15:23:02;11.20;64.70
8707;DHT22;4390;49.302;9.306;2023-03-01T15:25:30;11.00;64.70
8707;DHT22;4390;49.302;9.306;2023-03-01T15:27:59;10.80;65.10
8707;DHT22;4390;49.302;9.306;2023-03-01T15:30:31;10.70;65.20
8707;DHT22;4390;49.302;9.306;2023-03-01T15:35:51;10.50;66.00
8707;DHT22;4390;49.302;9.306;2023-03-01T15:38:33;10.60;65.90
8707;DHT22;4390;49.302;9.306;2023-03-01T15:41:03;10.60;65.70
8707;DHT22;4390;49.302;9.306;2023-03-01T15:43:42;10.50;66.00
8707;DHT22;4390;49.302;9.306;2023-03-01T15:46:34;10.50;66.10
8707;DHT22;4390;49.302;9.306;2023-03-01T15:49:31;10.20;66.30
8707;DHT22;4390;49.302;9.306;2023-03-01T15:52:00;10.20;66.60
8707;DHT22;4390;49.302;9.306;2023-03-01T15:54:27;10.20;66.50
8707;DHT22;4390;49.302;9.306;2023-03-01T15:56:54;10.10;66.70
8707;DHT22;4390;49.302;9.306;2023-03-01T15:59:22;10.00;66.50
8707;DHT22;4390;49.302;9.306;2023-03-01T16:01:49;9.70;67.10
8707;DHT22;4390;49.302;9.306;2023-03-01T16:04:18;9.50;67.20
8707;DHT22;4390;49.302;9.306;2023-03-01T16:06:54;9.40;67.70
8707;DHT22;4390;49.302;9.306;2023-03-01T16:09:25;9.10;67.70
8707;DHT22;4390;49.302;9.306;2023-03-01T16:11:53;8.50;68.50
8707;DHT22;4390;49.302;9.306;2023-03-01T16:14:20;8.00;69.00
8707;DHT22;4390;49.302;9.306;2023-03-01T16:16:48;7.70;70.30
8707;DHT22;4390;49.302;9.306;2023-03-01T16:19:15;7.50;70.40
8707;DHT22;4390;49.302;9.306;2023-03-01T16:21:43;7.50;70.60
8707;DHT22;4390;49.302;9.306;2023-03-01T16:24:13;7.60;70.90
8707;DHT22;4390;49.302;9.306;2023-03-01T16:26:40;7.70;70.80
8707;DHT22;4390;49.302;9.306;2023-03-01T16:29:08;7.70;70.80
8707;DHT22;4390;49.302;9.306;2023-03-01T16:31:35;7.80;70.80
8707;DHT22;4390;49.302;9.306;2023-03-01T16:34:02;8.00;70.70
8707;DHT22;4390;49.302;9.306;2023-03-01T16:36:29;8.10;70.60
8707;DHT22;4390;49.302;9.306;2023-03-01T16:38:58;8.10;70.70
8707;DHT22;4390;49.302;9.306;2023-03-01T16:41:25;8.00;70.60
8707;DHT22;4390;49.302;9.306;2023-03-01T16:43:52;7.80;70.60
8707;DHT22;4390;49.302;9.306;2023-03-01T16:46:25;7.80;71.00
8707;DHT22;4390;49.302;9.306;2023-03-01T16:48:56;7.80;71.00
8707;DHT22;4390;49.302;9.306;2023-03-01T16:51:23;7.60;71.20
8707;DHT22;4390;49.302;9.306;2023-03-01T16:53:50;7.50;71.40
8707;DHT22;4390;49.302;9.306;2023-03-01T16:56:18;7.30;71.90
8707;DHT22;4390;49.302;9.306;2023-03-01T16:58:45;7.00;72.20
8707;DHT22;4390;49.302;9.306;2023-03-01T17:01:15;6.70;72.60
8707;DHT22;4390;49.302;9.306;2023-03-01T17:03:44;6.40;73.30
8707;DHT22;4390;49.302;9.306;2023-03-01T17:06:16;6.40;73.40
8707;DHT22;4390;49.302;9.306;2023-03-01T17:08:43;6.50;73.40
8707;DHT22;4390;49.302;9.306;2023-03-01T17:11:15;6.50;73.50
8707;DHT22;4390;49.302;9.306;2023-03-01T17:13:43;6.50;73.30
8707;DHT22;4390;49.302;9.306;2023-03-01T17:16:13;6.40;73.40
8707;DHT22;4390;49.302;9.306;2023-03-01T17:18:41;6.20;73.70
8707;DHT22;4390;49.302;9.306;2023-03-01T17:21:09;6.20;73.80
8707;DHT22;4390;49.302;9.306;2023-03-01T17:23:38;6.30;73.80
8707;DHT22;4390;49.302;9.306;2023-03-01T17:26:05;6.50;73.60
8707;DHT22;4390;49.302;9.306;2023-03-01T17:28:33;6.60;73.30
8707;DHT22;4390;49.302;9.306;2023-03-01T17:31:03;6.60;73.30
8707;DHT22;4390;49.302;9.306;2023-03-01T17:33:30;6.70;73.30
8707;DHT22;4390;49.302;9.306;2023-03-01T17:35:58;6.60;73.10
8707;DHT22;4390;49.302;9.306;2023-03-01T17:38:25;6.30;73.60
8707;DHT22;4390;49.302;9.306;2023-03-01T17:40:52;6.10;74.10
8707;DHT22;4390;49.302;9.306;2023-03-01T17:43:18;6.20;74.10
8707;DHT22;4390;49.302;9.306;2023-03-01T17:45:45;6.30;74.10
8707;DHT22;4390;49.302;9.306;2023-03-01T17:48:17;6.40;73.90
8707;DHT22;4390;49.302;9.306;2023-03-01T17:50:44;6.40;74.10
8707;DHT22;4390;49.302;9.306;2023-03-01T17:53:11;6.30;74.20
8707;DHT22;4390;49.302;9.306;2023-03-01T17:55:40;6.40;74.20
8707;DHT22;4390;49.302;9.306;2023-03-01T17:58:09;6.50;74.30
8707;DHT22;4390;49.302;9.306;2023-03-01T18:00:36;6.50;74.10
8707;DHT22;4390;49.302;9.306;2023-03-01T18:03:08;6.50;74.30
8707;DHT22;4390;49.302;9.306;2023-03-01T18:05:40;6.50;74.30
8707;DHT22;4390;49.302;9.306;2023-03-01T18:08:06;6.40;74.50
8707;DHT22;4390;49.302;9.306;2023-03-01T18:10:33;6.40;74.30
8707;DHT22;4390;49.302;9.306;2023-03-01T18:13:13;6.50;74.30
8707;DHT22;4390;49.302;9.306;2023-03-01T18:15:40;6.40;74.50